sensor_id;sensor_type;location;lat;lon;timestamp;temperature;humidity
25668;DHT22;18003;-33.830;151.202;2023-03-13T00:01:45;24.00;99.90
25668;DHT22;18003;-33.830;151.202;2023-03-13T00:04:15;24.00;99.90
25668;DHT22;18003;-33.830;151.202;2023-03-13T00:06:45;24.10;99.90
25668;DHT22;18003;-33.830;151.202;2023-03-13T00:09:16;24.00;99.90
25668;DHT22;18003;-33.830;151.202;2023-03-13T00:11:46;24.00;99.90
25668;DHT22;18003;-33.830;151.202;2023-03-13T00:14:16;24.00;99.90
25668;DHT22;18003;-33.830;151.202;2023-03-13T00:16:46;24.00;99.90
25668;DHT22;18003;-33.830;151.202;2023-03-13T00:19:16;24.00;99.90
25668;DHT22;18003;-33.830;151.202;2023-03-13T00:21:46;24.00;99.90
25668;DHT22;18003;-33.830;151.202;2023-03-13T00:24:16;24.00;99.90
25668;DHT22;18003;-33.830;151.202;2023-03-13T00:26:46;24.00;99.90
25668;DHT22;18003;-33.830;151.202;2023-03-13T00:29:17;24.00;99.90
25668;DHT22;18003;-33.830;151.202;2023-03-13T00:31:47;24.00;99.90
25668;DHT22;18003;-33.830;151.202;2023-03-13T00:34:17;24.00;99.90
25668;DHT22;18003;-33.830;151.202;2023-03-13T00:36:47;24.00;99.90
25668;DHT22;18003;-33.830;151.202;2023-03-13T00:39:17;24.00;99.90
25668;DHT22;18003;-33.830;151.202;2023-03-13T00:41:47;24.00;99.90
25668;DHT22;18003;-33.830;151.202;2023-03-13T00:44:17;24.00;99.90
25668;DHT22;18003;-33.830;151.202;2023-03-13T00:46:47;24.00;99.90
25668;DHT22;18003;-33.830;151.202;2023-03-13T00:49:17;24.00;99.90
25668;DHT22;18003;-33.830;151.202;2023-03-13T00:51:47;24.00;99.90
25668;DHT22;18003;-33.830;151.202;2023-03-13T00:54:17;24.00;99.90
25668;DHT22;18003;-33.830;151.202;2023-03-13T00:56:47;24.00;99.90
25668;DHT22;18003;-33.830;151.202;2023-03-13T00:59:17;24.00;99.90
25668;DHT22;18003;-33.830;151.202;2023-03-13T01:01:47;24.00;99.90
25668;DHT22;18003;-33.830;151.202;2023-03-13T01:04:17;24.00;99.90
25668;DHT22;18003;-33.830;151.202;2023-03-13T01:06:47;24.10;99.90
25668;DHT22;18003;-33.830;151.202;2023-03-13T01:09:17;24.00;99.90
25668;DHT22;18003;-33.830;151.202;2023-03-13T01:11:47;24.10;99.90
25668;DHT22;18003;-33.830;151.202;2023-03-13T01:14:18;24.00;99.90
25668;DHT22;18003;-33.830;151.202;2023-03-13T01:16:48;24.00;99.90
25668;DHT22;18003;-33.830;151.202;2023-03-13T01:19:19;24.00;99.90
25668;DHT22;18003;-33.830;151.202;2023-03-13T01:21:49;24.00;99.90
25668;DHT22;18003;-33.830;151.202;2023-03-13T01:24:18;24.00;99.90
25668;DHT22;18003;-33.830;151.202;2023-03-13T01:26:49;24.00;99.90
25668;DHT22;18003;-33.830;151.202;2023-03-13T01:29:19;24.00;99.90
25668;DHT22;18003;-33.830;151.202;2023-03-13T01:31:50;24.00;99.90
25668;DHT22;18003;-33.830;151.202;2023-03-13T01:34:20;24.00;99.90
25668;DHT22;18003;-33.830;151.202;2023-03-13T01:36:50;24.00;99.90
25668;DHT22;18003;-33.830;151.202;2023-03-13T01:39:20;24.00;99.90
25668;DHT22;18003;-33.830;151.202;2023-03-13T01:41:50;23.90;99.90
25668;DHT22;18003;-33.830;151.202;2023-03-13T01:44:24;24.00;99.90
25668;DHT22;18003;-33.830;151.202;2023-03-13T01:46:55;24.00;99.90
25668;DHT22;18003;-33.830;151.202;2023-03-13T01:49:31;23.90;99.90
25668;DHT22;18003;-33.830;151.202;2023-03-13T01:52:04;24.00;99.90
25668;DHT22;18003;-33.830;151.202;2023-03-13T01:54:45;23.90;99.90
25668;DHT22;18003;-33.830;151.202;2023-03-13T01:57:16;24.00;99.90
25668;DHT22;18003;-33.830;151.202;2023-03-13T01:59:51;23.90;99.90
25668;DHT22;18003;-33.830;151.202;2023-03-13T02:02:21;23.90;99.90
25668;DHT22;18003;-33.830;151.202;2023-03-13T02:04:59;24.00;99.90
25668;DHT22;18003;-33.830;151.202;2023-03-13T02:07:33;23.90;99.90
25668;DHT22;18003;-33.830;151.202;2023-03-13T02:09:59;23.90;99.90
25668;DHT22;18003;-33.830;151.202;2023-03-13T02:12:34;24.00;99.90
25668;DHT22;18003;-33.830;151.202;2023-03-13T02:15:09;24.00;99.90
25668;DHT22;18003;-33.830;151.202;2023-03-13T02:17:40;24.00;99.90
25668;DHT22;18003;-33.830;151.202;2023-03-13T02:20:11;24.00;99.90
25668;DHT22;18003;-33.830;151.202;2023-03-13T02:22:59;24.00;99.90
25668;DHT22;18003;-33.830;151.202;2023-03-13T02:25:42;23.90;99.90
25668;DHT22;18003;-33.830;151.202;2023-03-13T02:28:20;23.90;99.90
25668;DHT22;18003;-33.830;151.202;2023-03-13T02:30:52;23.90;99.90
25668;DHT22;18003;-33.830;151.202;2023-03-13T02:33:28;23.90;99.90
25668;DHT22;18003;-33.830;151.202;2023-03-13T02:35:59;23.90;99.90
25668;DHT22;18003;-33.830;151.202;2023-03-13T02:38:32;23.90;99.90
25668;DHT22;18003;-33.830;151.202;2023-03-13T02:41:03;24.00;99.90
25668;DHT22;18003;-33.830;151.202;2023-03-13T02:43:35;23.90;99.90
25668;DHT22;18003;-33.830;151.202;2023-03-13T02:46:13;24.00;99.90
25668;DHT22;18003;-33.830;151.202;2023-03-13T02:48:51;24.00;99.90
25668;DHT22;18003;-33.830;151.202;2023-03-13T02:51:32;23.90;99.90
25668;DHT22;18003;-33.830;151.202;2023-03-13T02:54:09;24.00;99.90
25668;DHT22;18003;-33.830;151.202;2023-03-13T02:56:35;23.90;99.90
25668;DHT22;18003;-33.830;151.202;2023-03-13T02:59:06;24.00;99.90
25668;DHT22;18003;-33.830;151.202;2023-03-13T03:01:37;24.00;99.90
25668;DHT22;18003;-33.830;151.202;2023-03-13T03:04:07;24.00;99.90
25668;DHT22;18003;-33.830;151.202;2023-03-13T03:06:37;24.00;99.90
25668;DHT22;18003;-33.830;151.202;2023-03-13T03:09:07;24.00;99.90
25668;DHT22;18003;-33.830;151.202;2023-03-13T03:11:37;24.00;99.90
25668;DHT22;18003;-33.830;151.202;2023-03-13T03:14:08;23.90;99.90
25668;DHT22;18003;-33.830;151.202;2023-03-13T03:16:38;23.90;99.90
25668;DHT22;18003;-33.830;151.202;2023-03-13T03:19:08;23.90;99.90
25668;DHT22;18003;-33.830;151.202;2023-03-13T03:21:38;23.90;99.90
25668;DHT22;18003;-33.830;151.202;2023-03-13T03:24:08;23.90;99.90
25668;DHT22;18003;-33.830;151.202;2023-03-13T03:26:38;24.00;99.90
25668;DHT22;18003;-33.830;151.202;2023-03-13T03:29:08;24.00;99.90
25668;DHT22;18003;-33.830;151.202;2023-03-13T03:31:38;24.00;99.90
25668;DHT22;18003;-33.830;151.202;2023-03-13T03:34:09;24.00;99.90
25668;DHT22;18003;-33.830;151.202;2023-03-13T03:36:39;24.00;99.90
25668;DHT22;18003;-33.830;151.202;2023-03-13T03:39:09;24.00;99.90
25668;DHT22;18003;-33.830;151.202;2023-03-13T03:41:39;24.00;99.90
25668;DHT22;18003;-33.830;151.202;2023-03-13T03:44:09;24.00;99.90
25668;DHT22;18003;-33.830;151.202;2023-03-13T03:46:39;24.00;99.90
25668;DHT22;18003;-33.830;151.202;2023-03-13T03:49:09;24.00;99.90
25668;DHT22;18003;-33.830;151.202;2023-03-13T03:51:39;24.00;99.90
25668;DHT22;18003;-33.830;151.202;2023-03-13T03:54:09;24.00;99.90
25668;DHT22;18003;-33.830;151.202;2023-03-13T03:56:39;24.00;99.90
25668;DHT22;18003;-33.830;151.202;2023-03-13T03:59:08;24.00;99.90
25668;DHT22;18003;-33.830;151.202;2023-03-13T04:01:38;24.00;99.90
25668;DHT22;18003;-33.830;151.202;2023-03-13T04:04:09;24.00;99.90
25668;DHT22;18003;-33.830;151.202;2023-03-13T04:06:38;24.00;99.90
25668;DHT22;18003;-33.830;151.202;2023-03-13T04:09:08;24.00;99.90
25668;DHT22;18003;-33.830;151.202;2023-03-13T04:11:38;23.90;99.90
25668;DHT22;18003;-33.830;151.202;2023-03-13T04:14:08;24.00;99.90
25668;DHT22;18003;-33.830;151.202;2023-03-13T04:16:38;24.00;99.90
25668;DHT22;18003;-33.830;151.202;2023-03-13T04:19:08;24.00;99.90
25668;DHT22;18003;-33.830;151.202;2023-03-13T04:21:38;24.00;99.90
25668;DHT22;18003;-33.830;151.202;2023-03-13T04:24:09;24.00;99.90
25668;DHT22;18003;-33.830;151.202;2023-03-13T04:26:39;24.00;99.90
25668;DHT22;18003;-33.830;151.202;2023-03-13T04:29:09;24.00;99.90
25668;DHT22;18003;-33.830;151.202;2023-03-13T04:31:38;24.00;99.90
25668;DHT22;18003;-33.830;151.202;2023-03-13T04:34:08;24.00;99.90
25668;DHT22;18003;-33.830;151.202;2023-03-13T04:36:39;24.00;99.90
25668;DHT22;18003;-33.830;151.202;2023-03-13T04:39:10;24.00;99.90
25668;DHT22;18003;-33.830;151.202;2023-03-13T04:41:39;24.00;99.90
25668;DHT22;18003;-33.830;151.202;2023-03-13T04:44:10;24.00;99.90
25668;DHT22;18003;-33.830;151.202;2023-03-13T04:46:39;24.00;99.90
25668;DHT22;18003;-33.830;151.202;2023-03-13T04:49:09;23.90;99.90
25668;DHT22;18003;-33.830;151.202;2023-03-13T04:51:39;24.00;99.90
25668;DHT22;18003;-33.830;151.202;2023-03-13T04:54:09;24.00;99.90
25668;DHT22;18003;-33.830;151.202;2023-03-13T04:56:39;24.00;99.90
25668;DHT22;18003;-33.830;151.202;2023-03-13T04:59:13;24.00;99.90
25668;DHT22;18003;-33.830;151.202;2023-03-13T05:01:43;24.00;99.90
25668;DHT22;18003;-33.830;151.202;2023-03-13T05:04:13;24.00;99.90
25668;DHT22;18003;-33.830;151.202;2023-03-13T05:06:43;24.00;99.90
25668;DHT22;18003;-33.830;151.202;2023-03-13T05:09:13;24.00;99.90
25668;DHT22;18003;-33.830;151.202;2023-03-13T05:11:44;24.00;99.90
25668;DHT22;18003;-33.830;151.202;2023-03-13T05:14:14;23.90;99.90
25668;DHT22;18003;-33.830;151.202;2023-03-13T05:16:44;24.00;99.90
25668;DHT22;18003;-33.830;151.202;2023-03-13T05:19:14;24.00;99.90
25668;DHT22;18003;-33.830;151.202;2023-03-13T05:21:44;24.00;99.90
25668;DHT22;18003;-33.830;151.202;2023-03-13T05:24:14;24.00;99.90
25668;DHT22;18003;-33.830;151.202;2023-03-13T05:26:44;24.00;99.90
25668;DHT22;18003;-33.830;151.202;2023-03-13T05:29:14;23.90;99.90
25668;DHT22;18003;-33.830;151.202;2023-03-13T05:31:44;24.00;99.90
25668;DHT22;18003;-33.830;151.202;2023-03-13T05:34:14;24.00;99.90
25668;DHT22;18003;-33.830;151.202;2023-03-13T05:36:44;23.90;99.90
25668;DHT22;18003;-33.830;151.202;2023-03-13T05:39:15;23.90;99.90
25668;DHT22;18003;-33.830;151.202;2023-03-13T05:41:45;23.90;99.90
25668;DHT22;18003;-33.830;151.202;2023-03-13T05:44:15;23.90;99.90
25668;DHT22;18003;-33.830;151.202;2023-03-13T05:46:45;23.90;99.90
25668;DHT22;18003;-33.830;151.202;2023-03-13T05:49:15;23.90;99.90
25668;DHT22;18003;-33.830;151.202;2023-03-13T05:51:45;23.90;99.90
25668;DHT22;18003;-33.830;151.202;2023-03-13T05:54:15;23.90;99.90
25668;DHT22;18003;-33.830;151.202;2023-03-13T05:56:45;23.90;99.90
25668;DHT22;18003;-33.830;151.202;2023-03-13T05:59:16;23.90;99.90
25668;DHT22;18003;-33.830;151.202;2023-03-13T06:01:46;23.90;99.90
25668;DHT22;18003;-33.830;151.202;2023-03-13T06:04:16;23.90;99.90
25668;DHT22;18003;-33.830;151.202;2023-03-13T06:06:46;23.90;99.90
25668;DHT22;18003;-33.830;151.202;2023-03-13T06:09:16;23.90;99.90
25668;DHT22;18003;-33.830;151.202;2023-03-13T06:11:46;23.90;99.90
25668;DHT22;18003;-33.830;151.202;2023-03-13T06:14:16;23.90;99.90
25668;DHT22;18003;-33.830;151.202;2023-03-13T06:16:46;23.90;99.90
25668;DHT22;18003;-33.830;151.202;2023-03-13T06:19:16;24.00;99.90
25668;DHT22;18003;-33.830;151.202;2023-03-13T06:21:46;24.00;99.90
25668;DHT22;18003;-33.830;151.202;2023-03-13T06:24:16;24.00;99.90
25668;DHT22;18003;-33.830;151.202;2023-03-13T06:26:47;24.00;99.90
25668;DHT22;18003;-33.830;151.202;2023-03-13T06:29:18;24.00;99.90
25668;DHT22;18003;-33.830;151.202;2023-03-13T06:31:48;24.00;99.90
25668;DHT22;18003;-33.830;151.202;2023-03-13T06:34:19;24.00;99.90
25668;DHT22;18003;-33.830;151.202;2023-03-13T06:36:49;24.00;99.90
25668;DHT22;18003;-33.830;151.202;2023-03-13T06:39:19;24.00;99.90
25668;DHT22;18003;-33.830;151.202;2023-03-13T06:41:50;24.00;99.90
25668;DHT22;18003;-33.830;151.202;2023-03-13T06:44:20;24.00;99.90
25668;DHT22;18003;-33.830;151.202;2023-03-13T06:46:50;24.00;99.90
25668;DHT22;18003;-33.830;151.202;2023-03-13T06:49:19;24.00;99.90
25668;DHT22;18003;-33.830;151.202;2023-03-13T06:51:50;24.00;99.90
25668;DHT22;18003;-33.830;151.202;2023-03-13T06:54:20;24.00;99.90
25668;DHT22;18003;-33.830;151.202;2023-03-13T06:56:50;24.00;99.90
25668;DHT22;18003;-33.830;151.202;2023-03-13T06:59:20;24.00;99.90
25668;DHT22;18003;-33.830;151.202;2023-03-13T07:01:50;24.00;99.90
25668;DHT22;18003;-33.830;151.202;2023-03-13T07:04:20;24.00;99.90
25668;DHT22;18003;-33.830;151.202;2023-03-13T07:06:51;24.00;99.90
25668;DHT22;18003;-33.830;151.202;2023-03-13T07:09:21;24.00;99.90
25668;DHT22;18003;-33.830;151.202;2023-03-13T07:11:51;24.00;99.90
25668;DHT22;18003;-33.830;151.202;2023-03-13T07:14:21;24.00;99.90
25668;DHT22;18003;-33.830;151.202;2023-03-13T07:16:50;24.00;99.90
25668;DHT22;18003;-33.830;151.202;2023-03-13T07:19:21;24.00;99.90
25668;DHT22;18003;-33.830;151.202;2023-03-13T07:21:51;24.00;99.90
25668;DHT22;18003;-33.830;151.202;2023-03-13T07:24:20;24.00;99.90
25668;DHT22;18003;-33.830;151.202;2023-03-13T07:26:51;24.00;99.90
25668;DHT22;18003;-33.830;151.202;2023-03-13T07:29:21;24.00;99.90
25668;DHT22;18003;-33.830;151.202;2023-03-13T07:31:51;24.10;99.90
25668;DHT22;18003;-33.830;151.202;2023-03-13T07:34:21;24.20;99.90
25668;DHT22;18003;-33.830;151.202;2023-03-13T07:36:51;24.30;99.90
25668;DHT22;18003;-33.830;151.202;2023-03-13T07:39:21;24.40;99.90
25668;DHT22;18003;-33.830;151.202;2023-03-13T07:41:51;24.40;99.90
25668;DHT22;18003;-33.830;151.202;2023-03-13T07:44:21;24.50;99.90
25668;DHT22;18003;-33.830;151.202;2023-03-13T07:46:51;24.50;99.90
25668;DHT22;18003;-33.830;151.202;2023-03-13T07:49:21;24.60;99.90
25668;DHT22;18003;-33.830;151.202;2023-03-13T07:51:51;24.60;99.90
25668;DHT22;18003;-33.830;151.202;2023-03-13T07:54:21;24.60;99.90
25668;DHT22;18003;-33.830;151.202;2023-03-13T07:56:51;24.60;99.90
25668;DHT22;18003;-33.830;151.202;2023-03-13T07:59:21;24.60;99.90
25668;DHT22;18003;-33.830;151.202;2023-03-13T08:01:51;24.70;99.90
25668;DHT22;18003;-33.830;151.202;2023-03-13T08:04:21;24.70;99.90
25668;DHT22;18003;-33.830;151.202;2023-03-13T08:06:51;24.70;99.90
25668;DHT22;18003;-33.830;151.202;2023-03-13T08:09:21;24.70;99.90
25668;DHT22;18003;-33.830;151.202;2023-03-13T08:11:51;24.70;99.90
25668;DHT22;18003;-33.830;151.202;2023-03-13T08:14:21;24.70;99.90
25668;DHT22;18003;-33.830;151.202;2023-03-13T08:16:51;24.70;99.90
25668;DHT22;18003;-33.830;151.202;2023-03-13T08:19:21;24.70;99.90
25668;DHT22;18003;-33.830;151.202;2023-03-13T08:21:50;24.60;99.90
25668;DHT22;18003;-33.830;151.202;2023-03-13T08:24:20;24.70;99.90
25668;DHT22;18003;-33.830;151.202;2023-03-13T08:26:50;24.60;99.90
25668;DHT22;18003;-33.830;151.202;2023-03-13T08:29:20;24.70;99.90
25668;DHT22;18003;-33.830;151.202;2023-03-13T08:31:50;24.60;99.90
25668;DHT22;18003;-33.830;151.202;2023-03-13T08:34:20;24.60;99.90
25668;DHT22;18003;-33.830;151.202;2023-03-13T08:36:50;24.60;99.90
25668;DHT22;18003;-33.830;151.202;2023-03-13T08:39:20;24.60;99.90
25668;DHT22;18003;-33.830;151.202;2023-03-13T08:41:50;24.60;99.90
25668;DHT22;18003;-33.830;151.202;2023-03-13T08:44:20;24.60;99.90
25668;DHT22;18003;-33.830;151.202;2023-03-13T08:46:51;24.60;99.90
25668;DHT22;18003;-33.830;151.202;2023-03-13T08:49:20;24.60;99.90
25668;DHT22;18003;-33.830;151.202;2023-03-13T08:51:50;24.60;99.90
25668;DHT22;18003;-33.830;151.202;2023-03-13T08:54:20;24.60;99.90
25668;DHT22;18003;-33.830;151.202;2023-03-13T08:56:50;24.50;99.90
25668;DHT22;18003;-33.830;151.202;2023-03-13T08:59:19;24.50;99.90
25668;DHT22;18003;-33.830;151.202;2023-03-13T09:01:49;24.50;99.90
25668;DHT22;18003;-33.830;151.202;2023-03-13T09:04:19;24.50;99.90
25668;DHT22;18003;-33.830;151.202;2023-03-13T09:06:49;24.50;99.90
25668;DHT22;18003;-33.830;151.202;2023-03-13T09:09:19;24.50;99.90
25668;DHT22;18003;-33.830;151.202;2023-03-13T09:11:48;24.50;99.90
25668;DHT22;18003;-33.830;151.202;2023-03-13T09:14:18;24.70;99.90
25668;DHT22;18003;-33.830;151.202;2023-03-13T09:16:48;24.90;99.90
25668;DHT22;18003;-33.830;151.202;2023-03-13T09:19:18;25.00;99.90
25668;DHT22;18003;-33.830;151.202;2023-03-13T09:21:48;25.10;99.90
25668;DHT22;18003;-33.830;151.202;2023-03-13T09:24:18;25.00;99.90
25668;DHT22;18003;-33.830;151.202;2023-03-13T09:26:47;25.00;99.90
25668;DHT22;18003;-33.830;151.202;2023-03-13T09:29:17;25.20;99.90
25668;DHT22;18003;-33.830;151.202;2023-03-13T09:31:47;25.40;99.90
25668;DHT22;18003;-33.830;151.202;2023-03-13T09:34:17;25.50;99.90
25668;DHT22;18003;-33.830;151.202;2023-03-13T09:36:47;25.20;99.90
25668;DHT22;18003;-33.830;151.202;2023-03-13T09:39:17;25.20;99.90
25668;DHT22;18003;-33.830;151.202;2023-03-13T09:44:39;25.60;99.90
25668;DHT22;18003;-33.830;151.202;2023-03-13T09:47:29;25.50;99.90
25668;DHT22;18003;-33.830;151.202;2023-03-13T09:49:48;25.30;99.90
25668;DHT22;18003;-33.830;151.202;2023-03-13T09:52:26;25.40;99.90
25668;DHT22;18003;-33.830;151.202;2023-03-13T09:55:16;25.60;99.90
25668;DHT22;18003;-33.830;151.202;2023-03-13T09:57:54;25.60;99.90
25668;DHT22;18003;-33.830;151.202;2023-03-13T10:00:33;25.50;99.90
25668;DHT22;18003;-33.830;151.202;2023-03-13T10:05:50;25.50;99.90
25668;DHT22;18003;-33.830;151.202;2023-03-13T10:08:21;25.60;99.90
25668;DHT22;18003;-33.830;151.202;2023-03-13T10:11:06;25.60;99.90
25668;DHT22;18003;-33.830;151.202;2023-03-13T10:16:43;25.40;99.90
25668;DHT22;18003;-33.830;151.202;2023-03-13T10:19:18;25.70;99.90
25668;DHT22;18003;-33.830;151.202;2023-03-13T10:21:51;25.70;99.90
25668;DHT22;18003;-33.830;151.202;2023-03-13T10:24:29;25.60;99.90
25668;DHT22;18003;-33.830;151.202;2023-03-13T10:26:56;25.40;99.90
25668;DHT22;18003;-33.830;151.202;2023-03-13T10:29:28;25.50;99.90
25668;DHT22;18003;-33.830;151.202;2023-03-13T10:32:00;25.70;99.90
25668;DHT22;18003;-33.830;151.202;2023-03-13T10:37:20;25.50;99.90
25668;DHT22;18003;-33.830;151.202;2023-03-13T10:39:50;25.40;99.90
25668;DHT22;18003;-33.830;151.202;2023-03-13T10:42:32;25.60;99.90
25668;DHT22;18003;-33.830;151.202;2023-03-13T10:45:04;25.60;99.90
25668;DHT22;18003;-33.830;151.202;2023-03-13T10:47:35;25.60;99.90
25668;DHT22;18003;-33.830;151.202;2023-03-13T10:50:05;25.40;99.90
25668;DHT22;18003;-33.830;151.202;2023-03-13T10:52:43;25.40;99.90
25668;DHT22;18003;-33.830;151.202;2023-03-13T10:55:24;25.60;99.90
25668;DHT22;18003;-33.830;151.202;2023-03-13T10:58:01;25.60;99.90
25668;DHT22;18003;-33.830;151.202;2023-03-13T11:00:36;25.60;99.90
25668;DHT22;18003;-33.830;151.202;2023-03-13T11:03:17;25.30;99.90
25668;DHT22;18003;-33.830;151.202;2023-03-13T11:06:00;25.50;99.90
25668;DHT22;18003;-33.830;151.202;2023-03-13T11:08:37;25.60;99.90
25668;DHT22;18003;-33.830;151.202;2023-03-13T11:11:18;25.60;99.90
25668;DHT22;18003;-33.830;151.202;2023-03-13T11:13:49;25.40;99.90
25668;DHT22;18003;-33.830;151.202;2023-03-13T11:16:28;25.40;99.90
25668;DHT22;18003;-33.830;151.202;2023-03-13T11:30:40;25.40;99.90
25668;DHT22;18003;-33.830;151.202;2023-03-13T11:32:41;25.60;99.90
25668;DHT22;18003;-33.830;151.202;2023-03-13T11:35:17;25.60;99.90
25668;DHT22;18003;-33.830;151.202;2023-03-13T11:37:46;25.40;99.90
25668;DHT22;18003;-33.830;151.202;2023-03-13T11:43:31;25.40;99.90
25668;DHT22;18003;-33.830;151.202;2023-03-13T11:48:50;25.50;99.90
25668;DHT22;18003;-33.830;151.202;2023-03-13T11:51:48;25.30;99.90
25668;DHT22;18003;-33.830;151.202;2023-03-13T11:57:27;25.50;99.90
25668;DHT22;18003;-33.830;151.202;2023-03-13T12:02:50;25.20;99.90
25668;DHT22;18003;-33.830;151.202;2023-03-13T12:05:12;25.10;99.90
25668;DHT22;18003;-33.830;151.202;2023-03-13T12:07:56;25.00;99.90
25668;DHT22;18003;-33.830;151.202;2023-03-13T12:10:36;24.90;99.90
25668;DHT22;18003;-33.830;151.202;2023-03-13T12:13:26;24.80;99.90
25668;DHT22;18003;-33.830;151.202;2023-03-13T12:15:55;24.70;99.90
25668;DHT22;18003;-33.830;151.202;2023-03-13T12:21:13;24.70;99.90
25668;DHT22;18003;-33.830;151.202;2023-03-13T12:23:44;24.70;99.90
25668;DHT22;18003;-33.830;151.202;2023-03-13T12:26:24;24.60;99.90
25668;DHT22;18003;-33.830;151.202;2023-03-13T12:29:11;24.60;99.90
25668;DHT22;18003;-33.830;151.202;2023-03-13T12:31:46;24.60;99.90
25668;DHT22;18003;-33.830;151.202;2023-03-13T12:34:28;24.60;99.90
25668;DHT22;18003;-33.830;151.202;2023-03-13T12:39:39;24.50;99.90
25668;DHT22;18003;-33.830;151.202;2023-03-13T12:42:27;24.50;99.90
25668;DHT22;18003;-33.830;151.202;2023-03-13T12:44:56;24.50;99.90
25668;DHT22;18003;-33.830;151.202;2023-03-13T12:47:37;24.40;99.90
25668;DHT22;18003;-33.830;151.202;2023-03-13T12:53:15;24.40;99.90
25668;DHT22;18003;-33.830;151.202;2023-03-13T12:56:14;24.40;99.90
25668;DHT22;18003;-33.830;151.202;2023-03-13T12:58:53;24.40;99.90
25668;DHT22;18003;-33.830;151.202;2023-03-13T13:04:06;24.30;99.90
25668;DHT22;18003;-33.830;151.202;2023-03-13T13:09:57;24.30;99.90
25668;DHT22;18003;-33.830;151.202;2023-03-13T13:12:24;24.20;99.90
25668;DHT22;18003;-33.830;151.202;2023-03-13T13:22:50;24.20;99.90
25668;DHT22;18003;-33.830;151.202;2023-03-13T13:25:33;24.20;99.90
25668;DHT22;18003;-33.830;151.202;2023-03-13T13:30:45;24.20;99.90
25668;DHT22;18003;-33.830;151.202;2023-03-13T13:38:45;24.10;99.90
25668;DHT22;18003;-33.830;151.202;2023-03-13T13:43:49;24.10;99.90
25668;DHT22;18003;-33.830;151.202;2023-03-13T13:46:32;24.10;99.90
25668;DHT22;18003;-33.830;151.202;2023-03-13T13:49:12;24.20;99.90
25668;DHT22;18003;-33.830;151.202;2023-03-13T13:51:39;24.10;99.90
25668;DHT22;18003;-33.830;151.202;2023-03-13T13:57:14;24.10;99.90
25668;DHT22;18003;-33.830;151.202;2023-03-13T14:02:30;24.10;99.90
25668;DHT22;18003;-33.830;151.202;2023-03-13T14:05:06;24.10;99.90
25668;DHT22;18003;-33.830;151.202;2023-03-13T14:12:58;24.10;99.90
25668;DHT22;18003;-33.830;151.202;2023-03-13T14:15:32;24.00;99.90
25668;DHT22;18003;-33.830;151.202;2023-03-13T14:23:38;24.00;99.90
25668;DHT22;18003;-33.830;151.202;2023-03-13T14:26:11;24.00;99.90
25668;DHT22;18003;-33.830;151.202;2023-03-13T14:28:42;24.00;99.90
25668;DHT22;18003;-33.830;151.202;2023-03-13T14:31:29;24.00;99.90
25668;DHT22;18003;-33.830;151.202;2023-03-13T14:34:01;24.00;99.90
25668;DHT22;18003;-33.830;151.202;2023-03-13T14:36:49;24.00;99.90
25668;DHT22;18003;-33.830;151.202;2023-03-13T14:39:41;24.00;99.90
25668;DHT22;18003;-33.830;151.202;2023-03-13T14:42:12;24.00;99.90
25668;DHT22;18003;-33.830;151.202;2023-03-13T14:44:43;23.90;99.90
25668;DHT22;18003;-33.830;151.202;2023-03-13T14:49:56;23.90;99.90
25668;DHT22;18003;-33.830;151.202;2023-03-13T14:52:27;23.90;99.90
25668;DHT22;18003;-33.830;151.202;2023-03-13T14:55:03;23.90;99.90
25668;DHT22;18003;-33.830;151.202;2023-03-13T14:57:31;23.90;99.90
25668;DHT22;18003;-33.830;151.202;2023-03-13T15:00:32;23.90;99.90
25668;DHT22;18003;-33.830;151.202;2023-03-13T15:03:10;23.90;99.90
25668;DHT22;18003;-33.830;151.202;2023-03-13T15:05:32;23.90;99.90
25668;DHT22;18003;-33.830;151.202;2023-03-13T15:08:03;23.90;99.90
25668;DHT22;18003;-33.830;151.202;2023-03-13T15:10:34;23.80;99.90
25668;DHT22;18003;-33.830;151.202;2023-03-13T15:15:51;23.80;99.90
25668;DHT22;18003;-33.830;151.202;2023-03-13T15:18:26;23.80;99.90
25668;DHT22;18003;-33.830;151.202;2023-03-13T15:23:49;23.80;99.90
25668;DHT22;18003;-33.830;151.202;2023-03-13T15:26:16;23.80;99.90
25668;DHT22;18003;-33.830;151.202;2023-03-13T15:28:46;23.80;99.90
25668;DHT22;18003;-33.830;151.202;2023-03-13T15:31:16;23.80;99.90
25668;DHT22;18003;-33.830;151.202;2023-03-13T15:33:46;23.80;99.90
25668;DHT22;18003;-33.830;151.202;2023-03-13T15:36:17;23.80;99.90
25668;DHT22;18003;-33.830;151.202;2023-03-13T15:38:47;23.80;99.90
25668;DHT22;18003;-33.830;151.202;2023-03-13T15:41:18;23.80;99.90
25668;DHT22;18003;-33.830;151.202;2023-03-13T15:43:49;23.70;99.90
25668;DHT22;18003;-33.830;151.202;2023-03-13T15:46:24;23.70;99.90
25668;DHT22;18003;-33.830;151.202;2023-03-13T15:48:54;23.70;99.90
25668;DHT22;18003;-33.830;151.202;2023-03-13T15:51:24;23.70;99.90
25668;DHT22;18003;-33.830;151.202;2023-03-13T15:53:54;23.70;99.90
25668;DHT22;18003;-33.830;151.202;2023-03-13T15:56:24;23.70;99.90
25668;DHT22;18003;-33.830;151.202;2023-03-13T15:58:56;23.70;99.90
25668;DHT22;18003;-33.830;151.202;2023-03-13T16:01:26;23.70;99.90
25668;DHT22;18003;-33.830;151.202;2023-03-13T16:03:57;23.70;99.90
25668;DHT22;18003;-33.830;151.202;2023-03-13T16:06:27;23.70;99.90
25668;DHT22;18003;-33.830;151.202;2023-03-13T16:08:59;23.70;99.90
25668;DHT22;18003;-33.830;151.202;2023-03-13T16:11:29;23.70;99.90
25668;DHT22;18003;-33.830;151.202;2023-03-13T16:13:59;23.70;99.90
25668;DHT22;18003;-33.830;151.202;2023-03-13T16:16:31;23.60;99.90
25668;DHT22;18003;-33.830;151.202;2023-03-13T16:19:01;23.60;99.90
25668;DHT22;18003;-33.830;151.202;2023-03-13T16:21:32;23.60;99.90
25668;DHT22;18003;-33.830;151.202;2023-03-13T16:24:01;23.60;99.90
25668;DHT22;18003;-33.830;151.202;2023-03-13T16:26:31;23.60;99.90
25668;DHT22;18003;-33.830;151.202;2023-03-13T16:29:02;23.60;99.90
25668;DHT22;18003;-33.830;151.202;2023-03-13T16:31:33;23.60;99.90
25668;DHT22;18003;-33.830;151.202;2023-03-13T16:34:03;23.60;99.90
25668;DHT22;18003;-33.830;151.202;2023-03-13T16:36:34;23.60;99.90
25668;DHT22;18003;-33.830;151.202;2023-03-13T16:39:10;23.60;99.90
25668;DHT22;18003;-33.830;151.202;2023-03-13T16:41:39;23.60;99.90
25668;DHT22;18003;-33.830;151.202;2023-03-13T16:44:09;23.60;99.90
25668;DHT22;18003;-33.830;151.202;2023-03-13T16:46:40;23.60;99.90
25668;DHT22;18003;-33.830;151.202;2023-03-13T16:49:15;23.60;99.90